Time;durP1;ratioP1;P1;durP2;ratioP2;P2;SDS_P1;SDS_P2;PMS_P1;PMS_P2;Temp;Humidity;BMP_temperature;BMP_pressure;BME280_temperature;BME280_humidity;BME280_pressure;Samples;Min_cycle;Max_cycle;Signal;HPM_P1;HPM_P2
2024/01/31 00:01:37;;;;;;;16.02;1.33;;;4.40;99.90;;;;;;5057641;28;20051;-74
2024/01/31 00:04:04;;;;;;;12.52;1.20;;;4.40;99.90;;;;;;5060678;28;20448;-74
2024/01/31 00:06:30;;;;;;;11.63;0.90;;;4.40;99.90;;;;;;5055353;28;20041;-74
2024/01/31 00:08:57;;;;;;;7.30;0.80;;;4.40;99.90;;;;;;5060774;28;20105;-73
2024/01/31 00:11:28;;;;;;;7.07;0.60;;;4.50;99.90;;;;;;5060617;28;20127;-74
2024/01/31 00:13:57;;;;;;;7.90;1.42;;;4.50;99.90;;;;;;5033970;28;20037;-74
2024/01/31 00:16:23;;;;;;;10.18;1.10;;;4.50;99.90;;;;;;5060812;28;20044;-74
2024/01/31 00:18:52;;;;;;;12.80;1.25;;;4.50;99.90;;;;;;5060496;28;20047;-74
2024/01/31 00:21:18;;;;;;;8.77;1.48;;;4.50;99.90;;;;;;5036124;28;20733;-73
2024/01/31 00:23:44;;;;;;;19.17;1.80;;;4.50;99.90;;;;;;5043148;28;20527;-73
2024/01/31 00:26:10;;;;;;;10.20;0.98;;;4.50;99.90;;;;;;5055533;28;20061;-73
2024/01/31 00:28:35;;;;;;;10.27;0.90;;;4.50;99.90;;;;;;5039271;28;20040;-73
2024/01/31 00:31:01;;;;;;;14.52;2.03;;;4.50;99.90;;;;;;5059586;28;20724;-73
2024/01/31 00:33:27;;;;;;;11.25;1.52;;;4.50;99.90;;;;;;5043404;28;20044;-73
2024/01/31 00:35:53;;;;;;;10.35;1.17;;;4.50;99.90;;;;;;5060139;28;20040;-73
2024/01/31 00:38:19;;;;;;;11.93;1.83;;;4.50;99.90;;;;;;5059601;28;20032;-73
2024/01/31 00:40:45;;;;;;;8.82;0.73;;;4.50;99.90;;;;;;5042712;28;20040;-73
2024/01/31 00:43:10;;;;;;;12.27;1.63;;;4.50;99.90;;;;;;5043408;28;20318;-74
2024/01/31 00:45:36;;;;;;;9.52;0.80;;;4.50;99.90;;;;;;5075975;28;20052;-74
2024/01/31 00:48:02;;;;;;;11.98;1.05;;;4.50;99.90;;;;;;5056281;28;20055;-73
2024/01/31 00:50:28;;;;;;;10.07;1.65;;;4.60;99.90;;;;;;5058514;28;20048;-74
2024/01/31 00:52:54;;;;;;;16.95;1.00;;;4.60;99.90;;;;;;5058471;28;20075;-74
2024/01/31 00:55:20;;;;;;;8.85;0.77;;;4.90;99.90;;;;;;5043073;28;20052;-74
2024/01/31 00:57:46;;;;;;;7.65;1.10;;;4.60;99.90;;;;;;5055970;28;20051;-74
2024/01/31 01:00:14;;;;;;;11.43;1.10;;;4.60;99.90;;;;;;5040789;28;20044;-74
2024/01/31 01:02:40;;;;;;;15.07;1.00;;;4.60;99.90;;;;;;5058227;28;20049;-74
2024/01/31 01:05:08;;;;;;;11.05;1.83;;;4.50;99.90;;;;;;5058918;28;20252;-74
2024/01/31 01:07:36;;;;;;;10.60;1.30;;;4.50;99.90;;;;;;5042499;28;20040;-73
2024/01/31 01:10:03;;;;;;;12.45;0.73;;;4.50;99.90;;;;;;5056518;28;20128;-74
2024/01/31 01:12:29;;;;;;;13.20;1.10;;;4.60;99.90;;;;;;5042631;28;20044;-74
2024/01/31 01:14:55;;;;;;;9.07;1.77;;;4.50;99.90;;;;;;5047094;28;20049;-74
2024/01/31 01:17:21;;;;;;;14.65;0.95;;;4.50;99.90;;;;;;5042375;28;20046;-75
2024/01/31 01:19:46;;;;;;;12.68;0.75;;;4.50;99.90;;;;;;5059351;28;20041;-72
2024/01/31 01:22:12;;;;;;;10.23;0.95;;;4.50;99.90;;;;;;5056666;28;20043;-73
2024/01/31 01:24:38;;;;;;;8.27;0.80;;;4.50;99.90;;;;;;5054051;28;20101;-73
2024/01/31 01:27:04;;;;;;;9.15;0.40;;;4.50;99.90;;;;;;5055634;28;20055;-73
2024/01/31 01:29:30;;;;;;;13.05;1.85;;;4.40;99.90;;;;;;5058710;28;20080;-73
2024/01/31 01:31:56;;;;;;;6.97;0.85;;;4.40;99.90;;;;;;5041880;28;20121;-72
2024/01/31 01:34:21;;;;;;;7.00;0.30;;;4.60;99.90;;;;;;5058744;28;20119;-73
2024/01/31 01:36:48;;;;;;;8.30;1.48;;;4.40;99.90;;;;;;5042291;28;20041;-73
2024/01/31 01:39:13;;;;;;;10.05;0.80;;;4.30;99.90;;;;;;5059391;28;20534;-73
2024/01/31 01:41:39;;;;;;;7.82;0.50;;;4.30;99.90;;;;;;5052677;28;20074;-73
2024/01/31 01:44:05;;;;;;;12.13;1.65;;;4.30;99.90;;;;;;5058868;28;20048;-73
2024/01/31 01:46:35;;;;;;;9.38;0.40;;;4.20;99.90;;;;;;5055566;28;20147;-74
2024/01/31 01:49:01;;;;;;;8.43;0.40;;;4.20;99.90;;;;;;5042351;28;20178;-73
2024/01/31 01:51:27;;;;;;;6.63;0.50;;;4.20;99.90;;;;;;5058752;28;20127;-74
2024/01/31 01:53:52;;;;;;;11.07;2.13;;;4.10;99.90;;;;;;5057806;28;20435;-73
2024/01/31 01:56:19;;;;;;;8.18;1.17;;;4.20;99.90;;;;;;5058150;28;20588;-74
2024/01/31 01:58:48;;;;;;;5.78;0.80;;;4.20;99.90;;;;;;5056731;28;20105;-74
2024/01/31 02:01:15;;;;;;;14.05;0.70;;;1.90;99.90;;;;;;5058067;28;20109;-74
2024/01/31 02:03:41;;;;;;;7.63;0.52;;;4.20;99.90;;;;;;5029635;28;20051;-74
2024/01/31 02:06:07;;;;;;;11.13;0.50;;;4.20;99.90;;;;;;5058503;28;20396;-73
2024/01/31 02:08:33;;;;;;;8.60;0.70;;;4.20;99.90;;;;;;5047756;28;20139;-74
2024/01/31 02:10:58;;;;;;;7.20;1.02;;;4.20;99.90;;;;;;5057888;28;20050;-74
2024/01/31 02:13:24;;;;;;;9.93;0.52;;;4.20;99.90;;;;;;5046774;28;20315;-73
2024/01/31 02:15:51;;;;;;;13.57;0.70;;;4.30;99.90;;;;;;5030054;28;20465;-73
2024/01/31 02:18:17;;;;;;;10.15;0.35;;;4.20;99.90;;;;;;5058246;28;20492;-74
2024/01/31 02:20:43;;;;;;;6.68;0.52;;;4.20;99.90;;;;;;5058511;28;20040;-74
2024/01/31 02:23:10;;;;;;;6.95;1.25;;;4.20;99.90;;;;;;5057526;28;20044;-74
2024/01/31 02:25:36;;;;;;;5.50;0.35;;;4.20;99.90;;;;;;5040585;28;20131;-74
2024/01/31 02:28:02;;;;;;;15.45;0.65;;;4.20;99.90;;;;;;5041341;28;20052;-74
2024/01/31 02:30:27;;;;;;;7.85;0.80;;;4.20;99.90;;;;;;5057470;28;20082;-74
2024/01/31 02:32:56;;;;;;;10.93;1.13;;;4.20;99.90;;;;;;5057556;28;20056;-74
2024/01/31 02:35:23;;;;;;;10.82;0.50;;;4.10;99.90;;;;;;5057918;28;20131;-74
2024/01/31 02:37:49;;;;;;;10.85;1.48;;;4.10;99.90;;;;;;5053801;28;20549;-74
2024/01/31 02:40:15;;;;;;;7.25;0.50;;;4.10;99.90;;;;;;5057947;28;20040;-72
2024/01/31 02:42:42;;;;;;;5.65;0.30;;;4.00;99.90;;;;;;5057920;28;20523;-72
2024/01/31 02:45:08;;;;;;;6.25;0.40;;;4.00;99.90;;;;;;5057430;28;20051;-73
2024/01/31 02:47:34;;;;;;;9.93;0.70;;;3.90;99.90;;;;;;5057398;28;20052;-73
2024/01/31 02:50:00;;;;;;;3.67;0.28;;;3.90;99.90;;;;;;5051644;28;20053;-72
2024/01/31 02:52:26;;;;;;;7.65;0.38;;;3.80;99.90;;;;;;5057386;28;20044;-72
2024/01/31 02:54:52;;;;;;;5.03;0.50;;;3.80;99.90;;;;;;5039137;28;20078;-72
2024/01/31 02:57:19;;;;;;;8.30;0.60;;;3.70;99.90;;;;;;5058187;28;20092;-72
2024/01/31 02:59:45;;;;;;;5.95;0.68;;;3.80;99.90;;;;;;5055353;28;20513;-73
2024/01/31 03:02:10;;;;;;;8.70;0.60;;;3.80;99.90;;;;;;5034316;28;20040;-72
2024/01/31 03:04:36;;;;;;;6.28;0.45;;;3.80;99.90;;;;;;5039811;28;20052;-73
2024/01/31 03:07:02;;;;;;;7.95;0.80;;;3.70;99.90;;;;;;5050847;28;20044;-72
2024/01/31 03:09:28;;;;;;;7.18;0.50;;;3.70;99.90;;;;;;5038928;28;20044;-73
2024/01/31 03:11:54;;;;;;;6.68;0.40;;;3.70;99.90;;;;;;5055778;28;20040;-73
2024/01/31 03:14:20;;;;;;;8.75;0.60;;;3.60;99.90;;;;;;5056594;28;20052;-73
2024/01/31 03:16:46;;;;;;;8.02;0.60;;;3.60;99.90;;;;;;5057693;28;20162;-73
2024/01/31 03:19:13;;;;;;;11.75;1.25;;;3.50;99.90;;;;;;5037526;28;20044;-73
2024/01/31 03:21:39;;;;;;;6.28;0.82;;;3.40;99.90;;;;;;5033005;28;20040;-73
2024/01/31 03:24:05;;;;;;;9.40;0.80;;;3.40;99.90;;;;;;5057156;28;20874;-73
2024/01/31 03:26:31;;;;;;;6.57;1.50;;;3.30;99.90;;;;;;5041406;28;20044;-74
2024/01/31 03:28:58;;;;;;;8.00;1.20;;;3.30;99.90;;;;;;5044476;28;20416;-73
2024/01/31 03:31:24;;;;;;;8.85;0.82;;;3.30;99.90;;;;;;5061249;28;20044;-73
2024/01/31 03:33:49;;;;;;;12.77;0.63;;;3.30;99.90;;;;;;5059366;28;20056;-72
2024/01/31 03:36:15;;;;;;;4.00;0.50;;;3.30;99.90;;;;;;5044173;28;20043;-73
2024/01/31 03:38:41;;;;;;;6.80;0.82;;;3.20;99.90;;;;;;5043899;28;20047;-72
2024/01/31 03:41:07;;;;;;;3.85;0.50;;;3.20;99.90;;;;;;5051883;28;20234;-72
2024/01/31 03:43:33;;;;;;;8.25;0.47;;;3.20;99.90;;;;;;5060350;28;20591;-73
2024/01/31 03:46:02;;;;;;;7.13;0.40;;;3.20;99.90;;;;;;5056238;28;20040;-73
2024/01/31 03:48:28;;;;;;;8.32;0.70;;;3.10;99.90;;;;;;5043313;28;20060;-73
2024/01/31 03:50:54;;;;;;;3.60;0.80;;;3.20;99.90;;;;;;5057886;28;20044;-73
2024/01/31 03:53:20;;;;;;;9.88;0.60;;;3.00;99.90;;;;;;5059214;28;20127;-73
2024/01/31 03:55:46;;;;;;;5.65;0.63;;;3.30;99.90;;;;;;5036294;28;20057;-74
2024/01/31 03:58:11;;;;;;;7.25;0.22;;;2.90;99.90;;;;;;5043539;28;20048;-73
2024/01/31 04:00:37;;;;;;;7.82;1.23;;;2.90;99.90;;;;;;5060346;28;20040;-73
2024/01/31 04:03:03;;;;;;;7.07;0.55;;;2.80;99.90;;;;;;5044736;28;20048;-73
2024/01/31 04:05:29;;;;;;;6.40;1.77;;;2.70;99.90;;;;;;5056308;28;20464;-74
2024/01/31 04:07:55;;;;;;;6.40;0.63;;;2.70;99.90;;;;;;5056314;28;20052;-73
2024/01/31 04:10:21;;;;;;;10.10;0.75;;;2.80;99.90;;;;;;5053422;28;20103;-73
2024/01/31 04:12:47;;;;;;;6.10;0.40;;;3.30;99.90;;;;;;5059223;28;20049;-73
2024/01/31 04:15:13;;;;;;;8.45;0.40;;;3.20;99.90;;;;;;5037121;28;20081;-73
2024/01/31 04:17:39;;;;;;;9.70;0.47;;;3.10;99.90;;;;;;5058039;28;20127;-73
2024/01/31 04:20:06;;;;;;;5.82;0.40;;;2.70;99.90;;;;;;5058572;28;20037;-74
2024/01/31 04:22:32;;;;;;;3.53;0.63;;;2.80;99.90;;;;;;5058818;28;20044;-74
2024/01/31 04:24:58;;;;;;;9.10;0.90;;;2.80;99.90;;;;;;5042849;28;20560;-73
2024/01/31 04:27:23;;;;;;;7.15;0.35;;;2.80;99.90;;;;;;5060311;28;20058;-73
2024/01/31 04:29:49;;;;;;;8.00;0.40;;;2.70;99.90;;;;;;5043490;28;20076;-73
2024/01/31 04:32:15;;;;;;;5.50;0.40;;;2.90;99.90;;;;;;5044053;28;20056;-73
2024/01/31 04:34:41;;;;;;;7.32;0.40;;;2.60;99.90;;;;;;5059818;28;20444;-73
2024/01/31 04:37:07;;;;;;;8.50;0.90;;;2.50;99.90;;;;;;5060181;28;20500;-73
2024/01/31 04:39:34;;;;;;;4.20;0.32;;;2.40;99.90;;;;;;5040926;28;20078;-74
2024/01/31 04:42:00;;;;;;;8.07;1.17;;;1.10;99.90;;;;;;5058687;28;20109;-74
2024/01/31 04:44:26;;;;;;;6.60;1.17;;;2.30;99.90;;;;;;5059471;28;20387;-74
2024/01/31 04:46:52;;;;;;;9.10;0.45;;;2.20;99.90;;;;;;5058297;28;20126;-73
2024/01/31 04:49:17;;;;;;;7.40;0.40;;;2.40;99.90;;;;;;5043280;28;20041;-74
2024/01/31 04:51:43;;;;;;;5.68;0.40;;;1.90;99.90;;;;;;5043223;28;20548;-74
2024/01/31 04:54:09;;;;;;;6.03;0.25;;;1.90;99.90;;;;;;5060085;28;20072;-73
2024/01/31 04:56:36;;;;;;;6.45;0.70;;;2.00;99.90;;;;;;5056873;28;20505;-73
2024/01/31 04:59:01;;;;;;;8.07;0.65;;;1.70;99.90;;;;;;5043521;28;20075;-73
2024/01/31 05:01:28;;;;;;;7.60;0.45;;;2.00;99.90;;;;;;5056191;28;20516;-73
2024/01/31 05:03:57;;;;;;;7.72;0.45;;;2.70;99.90;;;;;;5059987;28;20082;-73
2024/01/31 05:06:23;;;;;;;9.23;0.88;;;1.50;99.90;;;;;;5059339;28;20554;-73
2024/01/31 05:08:49;;;;;;;7.38;0.38;;;1.50;99.90;;;;;;5059022;28;20135;-73
2024/01/31 05:11:15;;;;;;;2.92;0.40;;;2.40;99.90;;;;;;5042235;28;20044;-73
2024/01/31 05:13:44;;;;;;;9.82;0.30;;;1.50;99.90;;;;;;5042507;28;20142;-72
2024/01/31 05:16:10;;;;;;;8.27;0.52;;;1.50;99.90;;;;;;5058726;28;20461;-72
2024/01/31 05:18:36;;;;;;;5.57;1.00;;;2.30;99.90;;;;;;5034655;28;20534;-73
2024/01/31 05:21:03;;;;;;;3.13;0.30;;;1.50;99.90;;;;;;5059052;28;20048;-73
2024/01/31 05:23:32;;;;;;;5.88;0.52;;;1.50;99.90;;;;;;5043051;28;20120;-73
2024/01/31 05:25:57;;;;;;;7.63;0.40;;;1.70;99.90;;;;;;5032940;28;20109;-73
2024/01/31 05:28:23;;;;;;;6.93;1.33;;;1.50;99.90;;;;;;5042435;28;20053;-73
2024/01/31 05:30:49;;;;;;;5.30;0.55;;;1.50;99.90;;;;;;5034474;28;20425;-73
2024/01/31 05:33:18;;;;;;;3.78;0.55;;;1.50;99.90;;;;;;5058947;28;20051;-73
2024/01/31 05:35:44;;;;;;;7.85;0.30;;;1.40;99.90;;;;;;5041415;28;20080;-73
2024/01/31 05:38:09;;;;;;;5.93;0.40;;;1.50;99.90;;;;;;5034539;28;20127;-73
2024/01/31 05:40:38;;;;;;;4.47;0.50;;;1.20;99.90;;;;;;5052194;28;20048;-74
2024/01/31 05:43:04;;;;;;;7.55;0.65;;;1.40;99.90;;;;;;5058803;28;20051;-74
2024/01/31 05:45:30;;;;;;;8.02;0.88;;;1.30;99.90;;;;;;5040952;28;20045;-74
2024/01/31 05:47:55;;;;;;;9.98;0.65;;;1.40;99.90;;;;;;5039992;28;20052;-73
2024/01/31 05:50:21;;;;;;;6.93;0.65;;;1.90;99.90;;;;;;5058424;28;20041;-73
2024/01/31 05:52:47;;;;;;;5.53;0.38;;;1.60;99.90;;;;;;5057977;28;20532;-74
2024/01/31 05:55:15;;;;;;;8.93;0.43;;;1.60;99.90;;;;;;5057915;28;20056;-74
2024/01/31 05:57:41;;;;;;;11.38;0.68;;;1.60;99.90;;;;;;5057516;28;20504;-74
2024/01/31 06:00:09;;;;;;;6.18;0.40;;;1.80;99.90;;;;;;5042345;28;20052;-74
2024/01/31 06:02:35;;;;;;;5.93;0.63;;;1.90;99.90;;;;;;5037289;28;20036;-74
2024/01/31 06:05:01;;;;;;;12.82;0.68;;;2.00;99.90;;;;;;5038407;28;20098;-74
2024/01/31 06:07:27;;;;;;;9.55;1.85;;;2.70;99.90;;;;;;5039664;28;20046;-74
2024/01/31 06:09:53;;;;;;;6.82;0.80;;;2.20;99.90;;;;;;5057203;28;20889;-74
2024/01/31 06:12:18;;;;;;;5.20;0.60;;;2.10;99.90;;;;;;5057099;28;20316;-74
2024/01/31 06:14:44;;;;;;;7.88;0.68;;;2.20;99.90;;;;;;5058165;28;20044;-74
2024/01/31 06:17:10;;;;;;;12.48;1.85;;;2.20;99.90;;;;;;5041665;28;20044;-74
2024/01/31 06:19:38;;;;;;;8.45;0.80;;;2.30;99.90;;;;;;5057526;28;20051;-74
2024/01/31 06:22:04;;;;;;;11.15;1.10;;;2.20;99.90;;;;;;5039959;28;20047;-74
2024/01/31 06:24:29;;;;;;;6.28;0.93;;;2.30;99.90;;;;;;5040914;28;20076;-73
2024/01/31 06:26:55;;;;;;;6.22;1.00;;;4.00;99.90;;;;;;5058284;28;20040;-74
2024/01/31 06:29:21;;;;;;;9.13;1.38;;;2.40;99.90;;;;;;5057582;28;20675;-73
2024/01/31 06:31:47;;;;;;;6.05;1.05;;;2.50;99.90;;;;;;5041038;28;20048;-73
2024/01/31 06:34:16;;;;;;;10.15;0.75;;;2.60;99.90;;;;;;5057013;28;20048;-73
2024/01/31 06:36:43;;;;;;;8.05;0.77;;;2.60;99.90;;;;;;5056646;28;20040;-73
2024/01/31 06:39:11;;;;;;;7.88;0.70;;;2.70;99.90;;;;;;5054631;28;20040;-73
2024/01/31 06:41:38;;;;;;;9.05;0.80;;;2.70;99.90;;;;;;5050758;28;20169;-73
2024/01/31 06:44:03;;;;;;;8.80;1.23;;;2.90;99.90;;;;;;5058007;28;20041;-73
2024/01/31 06:46:32;;;;;;;7.47;1.40;;;2.80;99.90;;;;;;5057650;28;20040;-73
2024/01/31 06:48:58;;;;;;;6.43;0.85;;;2.90;99.90;;;;;;5057625;28;20048;-73
2024/01/31 06:51:24;;;;;;;6.32;0.47;;;2.90;99.90;;;;;;5056562;28;20526;-73
2024/01/31 06:53:50;;;;;;;9.93;1.25;;;2.90;99.90;;;;;;5057476;28;20048;-73
2024/01/31 06:56:19;;;;;;;8.48;1.10;;;2.90;99.90;;;;;;5057310;28;20052;-73
2024/01/31 06:58:49;;;;;;;7.03;0.85;;;3.00;99.90;;;;;;5036716;28;20051;-73
2024/01/31 07:01:24;;;;;;;10.75;0.60;;;3.00;99.90;;;;;;5056770;28;20045;-73
2024/01/31 07:03:50;;;;;;;4.75;0.80;;;3.10;99.90;;;;;;5057250;28;20570;-74
2024/01/31 07:06:16;;;;;;;8.52;1.40;;;3.40;99.90;;;;;;5054961;28;20052;-74
2024/01/31 07:08:41;;;;;;;4.60;0.60;;;3.10;99.90;;;;;;5056272;28;20131;-73
2024/01/31 07:11:10;;;;;;;6.32;1.23;;;3.60;99.90;;;;;;5056451;28;20056;-74
2024/01/31 07:13:39;;;;;;;6.10;1.15;;;3.20;99.90;;;;;;5057151;28;20091;-73
2024/01/31 07:16:09;;;;;;;6.95;0.60;;;3.40;99.90;;;;;;5044978;28;20048;-73
2024/01/31 07:18:43;;;;;;;11.30;0.63;;;3.20;99.90;;;;;;5057131;28;20729;-73
2024/01/31 07:21:22;;;;;;;3.85;0.55;;;3.20;99.90;;;;;;5040689;28;20607;-74
2024/01/31 07:23:47;;;;;;;6.03;0.77;;;3.30;99.90;;;;;;5040550;28;20378;-73
2024/01/31 07:26:24;;;;;;;5.55;0.80;;;3.40;99.90;;;;;;5056801;28;20109;-74
2024/01/31 07:28:50;;;;;;;3.08;0.70;;;3.40;99.90;;;;;;5056861;28;20458;-74
2024/01/31 07:31:16;;;;;;;11.73;0.85;;;3.40;99.90;;;;;;5055009;28;20044;-73
2024/01/31 07:33:42;;;;;;;18.15;2.67;;;3.50;99.90;;;;;;5040653;28;20050;-74
2024/01/31 07:36:08;;;;;;;9.55;1.42;;;3.50;99.90;;;;;;5038605;28;20623;-73
2024/01/31 07:38:34;;;;;;;10.52;0.95;;;3.50;99.90;;;;;;5036045;28;20458;-74
2024/01/31 07:41:01;;;;;;;8.98;2.13;;;3.10;99.90;;;;;;5039728;28;20036;-74
2024/01/31 07:43:27;;;;;;;11.68;1.00;;;3.60;99.90;;;;;;5057004;28;20048;-74
2024/01/31 07:45:53;;;;;;;9.40;1.95;;;3.60;99.90;;;;;;5045389;28;20040;-74
2024/01/31 07:48:19;;;;;;;6.68;1.20;;;3.70;99.90;;;;;;5048368;28;20497;-73
2024/01/31 07:50:45;;;;;;;9.60;1.10;;;3.70;99.90;;;;;;5056334;28;20088;-74
2024/01/31 07:53:11;;;;;;;7.20;0.88;;;3.10;99.90;;;;;;5073047;28;20743;-74
2024/01/31 07:55:37;;;;;;;6.95;0.98;;;3.70;99.90;;;;;;5056479;28;20055;-74
2024/01/31 07:58:03;;;;;;;15.60;3.40;;;3.70;99.90;;;;;;5054776;28;20076;-74
2024/01/31 08:00:29;;;;;;;5.57;1.00;;;3.70;99.90;;;;;;5040636;28;20139;-74
2024/01/31 08:02:55;;;;;;;8.18;1.10;;;3.70;99.90;;;;;;5038231;28;20447;-74
2024/01/31 08:05:21;;;;;;;9.95;1.52;;;3.80;99.90;;;;;;5055593;28;20080;-74
2024/01/31 08:07:46;;;;;;;9.65;1.48;;;4.10;99.90;;;;;;5045770;28;20060;-74
2024/01/31 08:10:12;;;;;;;12.60;3.70;;;3.80;99.90;;;;;;5056003;28;20052;-73
2024/01/31 08:12:42;;;;;;;5.82;1.00;;;3.80;99.90;;;;;;5049093;28;20037;-73
2024/01/31 08:15:09;;;;;;;10.85;1.35;;;3.80;99.90;;;;;;5037187;28;20148;-73
2024/01/31 08:17:35;;;;;;;5.82;1.23;;;3.90;99.90;;;;;;5060069;28;20638;-73
2024/01/31 08:20:01;;;;;;;8.07;1.40;;;3.90;99.90;;;;;;5060360;28;20973;-73
2024/01/31 08:22:27;;;;;;;7.82;1.40;;;3.80;99.90;;;;;;5053354;28;20041;-73
2024/01/31 08:24:52;;;;;;;9.45;1.60;;;3.90;99.90;;;;;;5053778;28;20514;-73
2024/01/31 08:27:18;;;;;;;4.32;1.23;;;4.50;99.90;;;;;;5060104;28;20056;-74
2024/01/31 08:29:45;;;;;;;10.00;1.15;;;3.90;99.90;;;;;;5057900;28;20690;-73
2024/01/31 08:32:11;;;;;;;4.82;1.35;;;3.90;99.90;;;;;;5056559;28;20055;-73
2024/01/31 08:34:37;;;;;;;5.95;1.27;;;4.00;99.90;;;;;;5034672;28;20045;-73
2024/01/31 08:37:03;;;;;;;6.07;1.45;;;5.00;99.90;;;;;;5042992;28;20044;-73
2024/01/31 08:39:31;;;;;;;10.80;1.85;;;4.00;99.90;;;;;;5041730;28;20490;-74
2024/01/31 08:41:57;;;;;;;8.82;1.63;;;4.10;99.90;;;;;;5060146;28;20505;-74
2024/01/31 08:44:22;;;;;;;8.68;1.83;;;4.40;99.90;;;;;;5059625;28;20036;-73
2024/01/31 08:46:48;;;;;;;7.45;2.83;;;4.10;99.90;;;;;;5042654;28;20461;-74
2024/01/31 08:49:14;;;;;;;5.20;2.20;;;4.10;99.90;;;;;;5057757;28;20428;-73
2024/01/31 08:51:40;;;;;;;7.15;2.90;;;4.20;99.90;;;;;;5059265;28;20067;-74
2024/01/31 08:54:06;;;;;;;11.55;3.65;;;4.20;99.90;;;;;;5042329;28;20129;-74
2024/01/31 08:56:34;;;;;;;16.92;5.53;;;4.30;99.90;;;;;;5041786;28;20079;-73
2024/01/31 08:59:00;;;;;;;11.73;4.25;;;4.30;99.90;;;;;;5059501;28;20488;-73
2024/01/31 09:01:26;;;;;;;26.92;6.22;;;4.40;99.90;;;;;;5057555;28;20501;-74
2024/01/31 09:03:52;;;;;;;7.50;4.00;;;4.50;99.90;;;;;;5038456;28;20044;-73
2024/01/31 09:06:18;;;;;;;7.25;4.57;;;4.60;99.90;;;;;;5042459;28;20088;-74
2024/01/31 09:08:43;;;;;;;9.27;4.45;;;4.60;99.90;;;;;;5058777;28;20127;-73
2024/01/31 09:11:09;;;;;;;8.40;4.93;;;4.70;99.90;;;;;;5051052;28;20390;-74
2024/01/31 09:13:35;;;;;;;9.63;5.05;;;4.70;99.90;;;;;;5042160;28;20041;-75
2024/01/31 09:16:02;;;;;;;9.57;4.53;;;3.40;99.90;;;;;;5032114;28;20424;-74
2024/01/31 09:18:28;;;;;;;9.25;4.78;;;5.00;99.90;;;;;;5042397;28;20677;-74
2024/01/31 09:20:54;;;;;;;10.50;4.70;;;4.80;99.90;;;;;;5056286;28;20032;-74
2024/01/31 09:23:21;;;;;;;9.93;5.25;;;4.80;99.90;;;;;;5042070;28;20559;-74
2024/01/31 09:25:47;;;;;;;6.85;4.47;;;4.90;99.90;;;;;;5057273;28;20049;-74
2024/01/31 09:28:12;;;;;;;12.10;6.10;;;4.90;99.90;;;;;;5038545;28;20284;-74
2024/01/31 09:30:38;;;;;;;11.15;6.43;;;5.00;99.90;;;;;;5061292;28;20048;-74
2024/01/31 09:33:04;;;;;;;10.63;6.22;;;5.00;99.90;;;;;;5040339;28;20044;-74
2024/01/31 09:35:31;;;;;;;12.02;5.90;;;5.10;99.90;;;;;;5036672;28;20044;-74
2024/01/31 09:37:56;;;;;;;9.65;4.78;;;5.20;99.90;;;;;;5034838;28;20037;-74
2024/01/31 09:40:23;;;;;;;11.13;7.15;;;5.30;99.90;;;;;;5038483;28;20037;-74
2024/01/31 09:42:52;;;;;;;11.10;5.88;;;4.00;99.90;;;;;;5051929;28;20052;-74
2024/01/31 09:45:18;;;;;;;11.63;5.63;;;7.30;99.90;;;;;;5054651;28;20071;-74
2024/01/31 09:47:47;;;;;;;6.38;4.40;;;5.50;99.90;;;;;;5040467;28;20564;-74
2024/01/31 09:50:13;;;;;;;12.90;5.43;;;5.50;99.90;;;;;;5055307;28;20048;-74
2024/01/31 09:52:40;;;;;;;7.15;4.40;;;5.70;99.90;;;;;;5039288;28;20127;-74
2024/01/31 09:55:09;;;;;;;10.35;4.55;;;5.70;99.90;;;;;;5040325;28;20098;-74
2024/01/31 09:57:36;;;;;;;9.00;4.65;;;5.70;99.90;;;;;;5054231;28;20052;-74
2024/01/31 10:00:05;;;;;;;11.85;5.22;;;5.80;99.90;;;;;;5034792;28;20060;-74
2024/01/31 10:02:32;;;;;;;7.22;4.40;;;5.90;99.90;;;;;;5056293;28;20048;-74
2024/01/31 10:04:58;;;;;;;10.32;5.47;;;3.70;99.90;;;;;;5038528;28;20050;-74
2024/01/31 10:07:25;;;;;;;5.93;5.00;;;4.70;99.90;;;;;;5054995;28;20503;-74
2024/01/31 10:09:53;;;;;;;8.27;4.82;;;5.90;99.90;;;;;;5038228;28;20421;-74
2024/01/31 10:12:20;;;;;;;7.65;5.20;;;5.80;99.90;;;;;;5033912;28;20044;-74
2024/01/31 10:14:53;;;;;;;7.30;4.88;;;5.80;99.90;;;;;;5056926;28;20501;-74
2024/01/31 10:17:23;;;;;;;9.48;4.18;;;5.70;99.90;;;;;;5037578;28;20103;-73
2024/01/31 10:19:49;;;;;;;7.38;5.25;;;5.70;99.90;;;;;;5034941;28;20048;-73
2024/01/31 10:22:18;;;;;;;11.38;4.85;;;5.70;99.90;;;;;;5037390;28;20078;-73
2024/01/31 10:24:51;;;;;;;6.05;4.20;;;5.70;99.90;;;;;;5052711;28;20045;-73
2024/01/31 10:27:20;;;;;;;6.57;4.53;;;5.70;99.90;;;;;;5052528;28;20037;-73
2024/01/31 10:29:47;;;;;;;8.00;4.80;;;5.70;99.90;;;;;;5038534;28;20055;-73
2024/01/31 10:32:16;;;;;;;9.73;4.97;;;5.70;99.90;;;;;;5040479;28;21013;-73
2024/01/31 10:34:43;;;;;;;8.25;4.90;;;5.80;99.90;;;;;;5039145;28;20064;-73
2024/01/31 10:37:10;;;;;;;7.95;4.85;;;5.80;99.90;;;;;;5054134;28;20058;-73
2024/01/31 10:39:39;;;;;;;7.78;4.80;;;5.90;99.90;;;;;;5051770;28;20565;-73
2024/01/31 10:42:05;;;;;;;7.43;5.13;;;5.90;99.90;;;;;;5069203;28;20123;-73
2024/01/31 10:44:32;;;;;;;7.35;3.75;;;6.10;99.90;;;;;;5056448;28;20588;-73
2024/01/31 10:47:11;;;;;;;9.35;4.60;;;6.10;99.90;;;;;;5043787;28;20087;-74
2024/01/31 10:49:36;;;;;;;7.18;3.88;;;6.10;99.90;;;;;;5013967;28;20028;-73
2024/01/31 10:52:05;;;;;;;9.65;4.97;;;6.20;99.90;;;;;;5009852;28;20165;-74
2024/01/31 10:54:36;;;;;;;6.97;4.15;;;6.10;99.90;;;;;;5015488;28;20058;-74
2024/01/31 10:57:07;;;;;;;8.70;5.15;;;9.20;99.90;;;;;;5025288;28;20075;-73
2024/01/31 10:59:36;;;;;;;;;;;6.20;99.90;;;;;;5018698;28;20052;-73
2024/01/31 11:02:12;;;;;;;7.20;5.00;;;6.20;99.90;;;;;;5045356;28;19921;-73
2024/01/31 11:04:39;;;;;;;8.20;4.80;;;6.30;99.90;;;;;;5029917;28;20036;-72
2024/01/31 11:07:05;;;;;;;7.68;4.65;;;6.30;99.90;;;;;;5042614;28;20032;-74
2024/01/31 11:09:31;;;;;;;10.77;4.43;;;6.30;99.90;;;;;;5024733;28;20078;-74
2024/01/31 11:12:04;;;;;;;10.80;5.30;;;6.30;99.90;;;;;;5024993;28;20055;-73
2024/01/31 11:15:49;;;;;;;9.73;5.10;;;6.30;99.90;;;;;;5032997;28;20419;-72
2024/01/31 11:18:24;;;;;;;;;;;6.30;99.90;;;;;;5026993;28;20257;-72
2024/01/31 11:20:50;;;;;;;7.60;5.30;;;6.30;99.90;;;;;;5030006;28;20567;-73
2024/01/31 11:23:23;;;;;;;8.77;5.35;;;6.30;99.90;;;;;;5006416;28;20039;-73
2024/01/31 11:25:50;;;;;;;10.30;6.35;;;6.40;99.90;;;;;;5054823;28;20044;-75
2024/01/31 11:28:17;;;;;;;7.40;5.20;;;6.40;99.90;;;;;;5017192;28;20048;-73
2024/01/31 11:30:43;;;;;;;9.13;5.45;;;6.00;99.90;;;;;;5045373;28;20041;-75
2024/01/31 11:33:09;;;;;;;7.65;5.88;;;6.30;99.90;;;;;;5045442;28;20083;-73
2024/01/31 11:35:38;;;;;;;8.73;6.03;;;6.30;99.90;;;;;;5034703;28;20040;-74
2024/01/31 11:38:06;;;;;;;9.40;7.13;;;5.40;99.90;;;;;;5012909;28;20036;-74
2024/01/31 11:40:33;;;;;;;7.55;6.20;;;6.40;99.90;;;;;;5017394;28;20378;-71
2024/01/31 11:42:59;;;;;;;7.63;5.40;;;6.40;99.90;;;;;;5033051;28;20123;-72
2024/01/31 11:45:27;;;;;;;7.30;5.45;;;6.40;99.90;;;;;;5049153;28;20049;-71
2024/01/31 11:47:55;;;;;;;8.00;6.13;;;6.90;99.90;;;;;;5018106;28;20613;-72
2024/01/31 11:50:22;;;;;;;9.15;6.07;;;6.30;99.90;;;;;;5007959;28;20453;-75
2024/01/31 11:52:49;;;;;;;7.95;6.60;;;6.50;99.90;;;;;;5028082;28;20045;-75
2024/01/31 11:55:21;;;;;;;8.48;6.97;;;6.50;99.90;;;;;;5051379;28;20048;-74
2024/01/31 11:57:46;;;;;;;8.43;5.95;;;6.50;99.90;;;;;;5039526;28;20146;-74
2024/01/31 12:00:16;;;;;;;8.77;7.50;;;6.50;99.90;;;;;;5037630;28;20056;-73
2024/01/31 12:02:42;;;;;;;10.93;8.75;;;8.00;99.90;;;;;;5067411;28;20048;-74
2024/01/31 12:05:08;;;;;;;11.98;9.15;;;6.40;99.90;;;;;;5051051;28;20059;-75
2024/01/31 12:07:34;;;;;;;12.38;9.63;;;6.40;99.90;;;;;;5031246;28;20036;-74
2024/01/31 12:10:00;;;;;;;12.82;10.20;;;6.40;99.90;;;;;;5050732;28;20366;-74
2024/01/31 12:12:34;;;;;;;11.10;9.35;;;6.40;99.90;;;;;;5036839;28;20040;-81
2024/01/31 12:15:00;;;;;;;10.52;9.45;;;6.40;99.90;;;;;;5048383;28;20037;-79
2024/01/31 12:17:27;;;;;;;11.55;8.93;;;6.60;99.90;;;;;;5035952;28;20171;-78
2024/01/31 12:20:08;;;;;;;11.82;8.65;;;7.40;99.90;;;;;;5033004;28;22266;-82
2024/01/31 12:22:38;;;;;;;11.80;7.85;;;6.40;99.90;;;;;;5034678;28;20032;-77
2024/01/31 12:25:08;;;;;;;9.75;7.80;;;7.60;99.90;;;;;;5054136;28;20048;-80
2024/01/31 12:27:34;;;;;;;12.07;8.45;;;6.30;99.90;;;;;;5021038;23;20565;-71
2024/01/31 12:30:21;;;;;;;9.13;7.40;;;6.40;99.90;;;;;;5006315;28;20062;-72
2024/01/31 12:32:46;;;;;;;9.20;7.70;;;5.80;99.90;;;;;;5010609;28;20132;-71
2024/01/31 12:35:12;;;;;;;13.48;8.15;;;6.40;99.90;;;;;;5034469;22;20056;-70
2024/01/31 12:37:39;;;;;;;10.63;8.05;;;;;;;;;;4978849;28;20080;-71
2024/01/31 12:40:07;;;;;;;12.38;8.57;;;6.50;99.90;;;;;;4992978;28;20081;-69
2024/01/31 12:42:34;;;;;;;9.93;7.28;;;6.50;99.90;;;;;;4999100;28;20057;-70
2024/01/31 12:45:03;;;;;;;9.88;7.10;;;6.50;99.90;;;;;;4982660;28;20069;-72
2024/01/31 12:47:32;;;;;;;10.80;7.05;;;6.30;99.90;;;;;;4986736;28;20158;-70
2024/01/31 12:49:59;;;;;;;9.75;7.57;;;6.50;99.90;;;;;;5005532;28;20080;-71
2024/01/31 12:52:25;;;;;;;13.82;8.15;;;6.50;99.90;;;;;;5001435;28;20160;-71
2024/01/31 12:54:51;;;;;;;11.02;7.18;;;6.50;99.90;;;;;;4986647;28;20042;-65